sensor_id;sensor_type;location;lat;lon;timestamp;P1;durP1;ratioP1;P2;durP2;ratioP2
22064;SDS011;11197;53.110;8.468;2023-12-20T00:00:56;6.38;;;1.67;;
22064;SDS011;11197;53.110;8.468;2023-12-20T00:03:22;13.93;;;3.80;;
22064;SDS011;11197;53.110;8.468;2023-12-20T00:05:49;16.65;;;4.20;;
22064;SDS011;11197;53.110;8.468;2023-12-20T00:08:15;14.20;;;2.58;;
22064;SDS011;11197;53.110;8.468;2023-12-20T00:10:41;9.77;;;2.20;;
22064;SDS011;11197;53.110;8.468;2023-12-20T00:13:08;11.43;;;1.75;;
22064;SDS011;11197;53.110;8.468;2023-12-20T00:15:34;10.98;;;1.58;;
22064;SDS011;11197;53.110;8.468;2023-12-20T00:18:00;9.27;;;1.60;;
22064;SDS011;11197;53.110;8.468;2023-12-20T00:20:26;11.40;;;1.90;;
22064;SDS011;11197;53.110;8.468;2023-12-20T00:22:53;10.63;;;1.98;;
22064;SDS011;11197;53.110;8.468;2023-12-20T00:25:25;12.60;;;1.88;;
22064;SDS011;11197;53.110;8.468;2023-12-20T00:27:51;11.18;;;1.80;;
22064;SDS011;11197;53.110;8.468;2023-12-20T00:30:17;12.52;;;1.75;;
22064;SDS011;11197;53.110;8.468;2023-12-20T00:32:43;12.48;;;1.95;;
22064;SDS011;11197;53.110;8.468;2023-12-20T00:35:14;12.02;;;1.60;;
22064;SDS011;11197;53.110;8.468;2023-12-20T00:37:40;10.43;;;1.80;;
22064;SDS011;11197;53.110;8.468;2023-12-20T00:40:07;8.85;;;1.70;;
22064;SDS011;11197;53.110;8.468;2023-12-20T00:42:33;11.55;;;1.40;;
22064;SDS011;11197;53.110;8.468;2023-12-20T00:44:59;13.35;;;2.10;;
22064;SDS011;11197;53.110;8.468;2023-12-20T00:47:25;10.30;;;1.90;;
22064;SDS011;11197;53.110;8.468;2023-12-20T00:49:51;10.13;;;1.42;;
22064;SDS011;11197;53.110;8.468;2023-12-20T00:52:17;11.52;;;1.77;;
22064;SDS011;11197;53.110;8.468;2023-12-20T00:54:43;13.80;;;2.00;;
22064;SDS011;11197;53.110;8.468;2023-12-20T00:57:09;11.05;;;2.20;;
22064;SDS011;11197;53.110;8.468;2023-12-20T00:59:35;11.75;;;2.28;;
22064;SDS011;11197;53.110;8.468;2023-12-20T01:02:01;12.18;;;2.17;;
22064;SDS011;11197;53.110;8.468;2023-12-20T01:04:27;15.63;;;1.80;;
22064;SDS011;11197;53.110;8.468;2023-12-20T01:06:52;11.77;;;1.80;;
22064;SDS011;11197;53.110;8.468;2023-12-20T01:09:18;8.88;;;2.05;;
22064;SDS011;11197;53.110;8.468;2023-12-20T01:11:44;12.93;;;2.05;;
22064;SDS011;11197;53.110;8.468;2023-12-20T01:14:11;12.38;;;2.10;;
22064;SDS011;11197;53.110;8.468;2023-12-20T01:16:37;13.15;;;2.20;;
22064;SDS011;11197;53.110;8.468;2023-12-20T01:19:03;16.88;;;2.10;;
22064;SDS011;11197;53.110;8.468;2023-12-20T01:21:28;13.10;;;2.30;;
22064;SDS011;11197;53.110;8.468;2023-12-20T01:23:54;11.10;;;1.90;;
22064;SDS011;11197;53.110;8.468;2023-12-20T01:26:20;13.77;;;1.80;;
22064;SDS011;11197;53.110;8.468;2023-12-20T01:28:45;11.73;;;2.10;;
22064;SDS011;11197;53.110;8.468;2023-12-20T01:31:11;11.13;;;1.88;;
22064;SDS011;11197;53.110;8.468;2023-12-20T01:33:37;10.50;;;1.63;;
22064;SDS011;11197;53.110;8.468;2023-12-20T01:36:03;9.52;;;1.60;;
22064;SDS011;11197;53.110;8.468;2023-12-20T01:38:29;15.88;;;2.30;;
22064;SDS011;11197;53.110;8.468;2023-12-20T01:40:55;10.95;;;1.90;;
22064;SDS011;11197;53.110;8.468;2023-12-20T01:43:20;8.85;;;1.90;;
22064;SDS011;11197;53.110;8.468;2023-12-20T01:45:46;9.02;;;1.80;;
22064;SDS011;11197;53.110;8.468;2023-12-20T01:48:12;14.00;;;2.17;;
22064;SDS011;11197;53.110;8.468;2023-12-20T01:50:41;11.48;;;2.00;;
22064;SDS011;11197;53.110;8.468;2023-12-20T01:53:08;13.00;;;1.92;;
22064;SDS011;11197;53.110;8.468;2023-12-20T01:55:38;10.40;;;1.52;;
22064;SDS011;11197;53.110;8.468;2023-12-20T01:58:05;12.13;;;1.73;;
22064;SDS011;11197;53.110;8.468;2023-12-20T02:00:34;11.68;;;2.08;;
22064;SDS011;11197;53.110;8.468;2023-12-20T02:03:00;12.00;;;1.73;;
22064;SDS011;11197;53.110;8.468;2023-12-20T02:05:29;11.23;;;1.88;;
22064;SDS011;11197;53.110;8.468;2023-12-20T02:07:55;11.32;;;1.75;;
22064;SDS011;11197;53.110;8.468;2023-12-20T02:10:21;12.27;;;1.80;;
22064;SDS011;11197;53.110;8.468;2023-12-20T02:12:47;11.98;;;1.67;;
22064;SDS011;11197;53.110;8.468;2023-12-20T02:15:12;12.65;;;1.70;;
22064;SDS011;11197;53.110;8.468;2023-12-20T02:17:38;8.68;;;1.70;;
22064;SDS011;11197;53.110;8.468;2023-12-20T02:20:05;13.38;;;1.77;;
22064;SDS011;11197;53.110;8.468;2023-12-20T02:22:31;8.82;;;1.70;;
22064;SDS011;11197;53.110;8.468;2023-12-20T02:24:57;14.70;;;1.90;;
22064;SDS011;11197;53.110;8.468;2023-12-20T02:27:23;13.23;;;1.92;;
22064;SDS011;11197;53.110;8.468;2023-12-20T02:29:48;8.95;;;1.60;;
22064;SDS011;11197;53.110;8.468;2023-12-20T02:32:15;13.02;;;1.67;;
22064;SDS011;11197;53.110;8.468;2023-12-20T02:34:46;12.10;;;1.65;;
22064;SDS011;11197;53.110;8.468;2023-12-20T02:37:13;9.18;;;1.60;;
22064;SDS011;11197;53.110;8.468;2023-12-20T02:39:38;12.45;;;1.73;;
22064;SDS011;11197;53.110;8.468;2023-12-20T02:42:04;12.00;;;1.55;;
22064;SDS011;11197;53.110;8.468;2023-12-20T02:44:30;13.82;;;1.80;;
22064;SDS011;11197;53.110;8.468;2023-12-20T02:46:55;13.07;;;1.65;;
22064;SDS011;11197;53.110;8.468;2023-12-20T02:49:21;11.43;;;1.70;;
22064;SDS011;11197;53.110;8.468;2023-12-20T02:51:46;10.60;;;1.77;;
22064;SDS011;11197;53.110;8.468;2023-12-20T02:54:12;9.20;;;1.55;;
22064;SDS011;11197;53.110;8.468;2023-12-20T02:56:38;11.57;;;2.33;;
22064;SDS011;11197;53.110;8.468;2023-12-20T02:59:04;11.18;;;1.92;;
22064;SDS011;11197;53.110;8.468;2023-12-20T03:01:31;14.02;;;1.80;;
22064;SDS011;11197;53.110;8.468;2023-12-20T03:03:56;18.55;;;2.03;;
22064;SDS011;11197;53.110;8.468;2023-12-20T03:06:22;10.20;;;1.77;;
22064;SDS011;11197;53.110;8.468;2023-12-20T03:08:48;10.68;;;1.80;;
22064;SDS011;11197;53.110;8.468;2023-12-20T03:11:14;13.73;;;1.95;;
22064;SDS011;11197;53.110;8.468;2023-12-20T03:13:39;7.40;;;1.63;;
22064;SDS011;11197;53.110;8.468;2023-12-20T03:16:12;12.70;;;1.83;;
22064;SDS011;11197;53.110;8.468;2023-12-20T03:18:38;15.07;;;2.30;;
22064;SDS011;11197;53.110;8.468;2023-12-20T03:21:05;13.70;;;1.88;;
22064;SDS011;11197;53.110;8.468;2023-12-20T03:23:31;12.55;;;2.30;;
22064;SDS011;11197;53.110;8.468;2023-12-20T03:25:57;11.30;;;1.85;;
22064;SDS011;11197;53.110;8.468;2023-12-20T03:28:24;16.38;;;2.38;;
22064;SDS011;11197;53.110;8.468;2023-12-20T03:30:50;12.80;;;1.95;;
22064;SDS011;11197;53.110;8.468;2023-12-20T03:33:15;16.88;;;2.70;;
22064;SDS011;11197;53.110;8.468;2023-12-20T03:35:41;17.42;;;2.20;;
22064;SDS011;11197;53.110;8.468;2023-12-20T03:38:07;12.05;;;2.08;;
22064;SDS011;11197;53.110;8.468;2023-12-20T03:40:33;11.25;;;2.00;;
22064;SDS011;11197;53.110;8.468;2023-12-20T03:42:58;13.30;;;2.30;;
22064;SDS011;11197;53.110;8.468;2023-12-20T03:45:24;13.60;;;2.40;;
22064;SDS011;11197;53.110;8.468;2023-12-20T03:47:50;17.35;;;2.30;;
22064;SDS011;11197;53.110;8.468;2023-12-20T03:50:20;22.00;;;2.90;;
22064;SDS011;11197;53.110;8.468;2023-12-20T03:52:47;18.35;;;2.30;;
22064;SDS011;11197;53.110;8.468;2023-12-20T03:55:12;13.20;;;2.08;;
22064;SDS011;11197;53.110;8.468;2023-12-20T03:57:38;14.50;;;2.35;;
22064;SDS011;11197;53.110;8.468;2023-12-20T04:00:04;10.43;;;2.08;;
22064;SDS011;11197;53.110;8.468;2023-12-20T04:02:37;12.75;;;2.17;;
22064;SDS011;11197;53.110;8.468;2023-12-20T04:05:03;16.58;;;2.13;;
22064;SDS011;11197;53.110;8.468;2023-12-20T04:07:30;21.20;;;2.17;;
22064;SDS011;11197;53.110;8.468;2023-12-20T04:09:56;13.80;;;2.20;;
22064;SDS011;11197;53.110;8.468;2023-12-20T04:12:21;10.90;;;1.90;;
22064;SDS011;11197;53.110;8.468;2023-12-20T04:14:47;19.27;;;2.15;;
22064;SDS011;11197;53.110;8.468;2023-12-20T04:17:13;11.05;;;1.80;;
22064;SDS011;11197;53.110;8.468;2023-12-20T04:19:41;10.38;;;2.10;;
22064;SDS011;11197;53.110;8.468;2023-12-20T04:22:07;13.68;;;2.70;;
22064;SDS011;11197;53.110;8.468;2023-12-20T04:24:32;12.18;;;1.90;;
22064;SDS011;11197;53.110;8.468;2023-12-20T04:26:58;14.70;;;2.40;;
22064;SDS011;11197;53.110;8.468;2023-12-20T04:29:23;12.85;;;2.42;;
22064;SDS011;11197;53.110;8.468;2023-12-20T04:31:49;16.15;;;2.35;;
22064;SDS011;11197;53.110;8.468;2023-12-20T04:34:16;16.35;;;2.65;;
22064;SDS011;11197;53.110;8.468;2023-12-20T04:36:42;19.80;;;2.55;;
22064;SDS011;11197;53.110;8.468;2023-12-20T04:39:08;13.38;;;2.50;;
22064;SDS011;11197;53.110;8.468;2023-12-20T04:41:35;14.15;;;3.08;;
22064;SDS011;11197;53.110;8.468;2023-12-20T04:44:00;14.50;;;3.10;;
22064;SDS011;11197;53.110;8.468;2023-12-20T04:46:27;15.90;;;3.45;;
22064;SDS011;11197;53.110;8.468;2023-12-20T04:48:52;14.68;;;3.15;;
22064;SDS011;11197;53.110;8.468;2023-12-20T04:51:18;17.13;;;3.47;;
22064;SDS011;11197;53.110;8.468;2023-12-20T04:53:44;12.88;;;2.70;;
22064;SDS011;11197;53.110;8.468;2023-12-20T04:56:09;16.50;;;2.97;;
22064;SDS011;11197;53.110;8.468;2023-12-20T04:58:35;12.63;;;2.35;;
22064;SDS011;11197;53.110;8.468;2023-12-20T05:01:01;21.00;;;3.20;;
22064;SDS011;11197;53.110;8.468;2023-12-20T05:03:27;20.77;;;2.90;;
22064;SDS011;11197;53.110;8.468;2023-12-20T05:05:52;17.45;;;2.95;;
22064;SDS011;11197;53.110;8.468;2023-12-20T05:08:18;14.20;;;2.83;;
22064;SDS011;11197;53.110;8.468;2023-12-20T05:10:44;14.30;;;2.72;;
22064;SDS011;11197;53.110;8.468;2023-12-20T05:13:10;13.55;;;2.97;;
22064;SDS011;11197;53.110;8.468;2023-12-20T05:15:36;19.23;;;2.70;;
22064;SDS011;11197;53.110;8.468;2023-12-20T05:18:01;21.25;;;3.00;;
22064;SDS011;11197;53.110;8.468;2023-12-20T05:20:27;17.10;;;2.78;;
22064;SDS011;11197;53.110;8.468;2023-12-20T05:22:53;21.52;;;2.95;;
22064;SDS011;11197;53.110;8.468;2023-12-20T05:25:18;17.73;;;2.80;;
22064;SDS011;11197;53.110;8.468;2023-12-20T05:27:44;17.67;;;3.10;;
22064;SDS011;11197;53.110;8.468;2023-12-20T05:30:10;19.40;;;3.33;;
22064;SDS011;11197;53.110;8.468;2023-12-20T05:32:36;16.80;;;3.08;;
22064;SDS011;11197;53.110;8.468;2023-12-20T05:35:01;18.13;;;2.95;;
22064;SDS011;11197;53.110;8.468;2023-12-20T05:37:28;16.35;;;2.80;;
22064;SDS011;11197;53.110;8.468;2023-12-20T05:39:54;19.20;;;3.17;;
22064;SDS011;11197;53.110;8.468;2023-12-20T05:42:19;22.52;;;3.72;;
22064;SDS011;11197;53.110;8.468;2023-12-20T05:44:45;23.58;;;4.10;;
22064;SDS011;11197;53.110;8.468;2023-12-20T05:47:11;19.42;;;3.80;;
22064;SDS011;11197;53.110;8.468;2023-12-20T05:49:36;19.50;;;3.78;;
22064;SDS011;11197;53.110;8.468;2023-12-20T05:52:02;20.83;;;3.88;;
22064;SDS011;11197;53.110;8.468;2023-12-20T05:54:28;22.70;;;3.70;;
22064;SDS011;11197;53.110;8.468;2023-12-20T05:56:53;17.42;;;2.70;;
22064;SDS011;11197;53.110;8.468;2023-12-20T05:59:19;21.90;;;3.60;;
22064;SDS011;11197;53.110;8.468;2023-12-20T06:01:45;20.15;;;3.65;;
22064;SDS011;11197;53.110;8.468;2023-12-20T06:04:11;18.23;;;3.72;;
22064;SDS011;11197;53.110;8.468;2023-12-20T06:06:40;20.75;;;3.63;;
22064;SDS011;11197;53.110;8.468;2023-12-20T06:09:07;18.80;;;3.25;;
22064;SDS011;11197;53.110;8.468;2023-12-20T06:11:32;23.27;;;3.72;;
22064;SDS011;11197;53.110;8.468;2023-12-20T06:13:58;20.85;;;3.63;;
22064;SDS011;11197;53.110;8.468;2023-12-20T06:16:24;25.23;;;3.95;;
22064;SDS011;11197;53.110;8.468;2023-12-20T06:18:49;23.30;;;3.90;;
22064;SDS011;11197;53.110;8.468;2023-12-20T06:21:15;17.75;;;3.90;;
22064;SDS011;11197;53.110;8.468;2023-12-20T06:23:41;22.30;;;3.90;;
22064;SDS011;11197;53.110;8.468;2023-12-20T06:26:07;22.17;;;4.15;;
22064;SDS011;11197;53.110;8.468;2023-12-20T06:28:32;24.95;;;4.05;;
22064;SDS011;11197;53.110;8.468;2023-12-20T06:30:58;18.90;;;3.58;;
22064;SDS011;11197;53.110;8.468;2023-12-20T06:33:25;26.58;;;3.42;;
22064;SDS011;11197;53.110;8.468;2023-12-20T06:35:51;23.90;;;3.70;;
22064;SDS011;11197;53.110;8.468;2023-12-20T06:38:17;20.38;;;3.28;;
22064;SDS011;11197;53.110;8.468;2023-12-20T06:40:44;19.35;;;3.50;;
22064;SDS011;11197;53.110;8.468;2023-12-20T06:43:10;19.20;;;3.13;;
22064;SDS011;11197;53.110;8.468;2023-12-20T06:45:37;21.23;;;3.30;;
22064;SDS011;11197;53.110;8.468;2023-12-20T06:48:03;23.88;;;4.03;;
22064;SDS011;11197;53.110;8.468;2023-12-20T06:50:28;22.27;;;3.97;;
22064;SDS011;11197;53.110;8.468;2023-12-20T06:52:54;19.20;;;4.60;;
22064;SDS011;11197;53.110;8.468;2023-12-20T06:55:20;22.83;;;3.40;;
22064;SDS011;11197;53.110;8.468;2023-12-20T06:57:45;22.55;;;3.50;;
22064;SDS011;11197;53.110;8.468;2023-12-20T07:00:11;25.00;;;3.90;;
22064;SDS011;11197;53.110;8.468;2023-12-20T07:02:38;23.65;;;3.40;;
22064;SDS011;11197;53.110;8.468;2023-12-20T07:05:03;23.08;;;3.22;;
22064;SDS011;11197;53.110;8.468;2023-12-20T07:07:29;19.50;;;3.25;;
22064;SDS011;11197;53.110;8.468;2023-12-20T07:09:55;23.50;;;3.35;;
22064;SDS011;11197;53.110;8.468;2023-12-20T07:12:21;20.20;;;3.28;;
22064;SDS011;11197;53.110;8.468;2023-12-20T07:14:46;23.25;;;3.92;;
22064;SDS011;11197;53.110;8.468;2023-12-20T07:17:12;23.42;;;3.42;;
22064;SDS011;11197;53.110;8.468;2023-12-20T07:19:40;21.92;;;3.83;;
22064;SDS011;11197;53.110;8.468;2023-12-20T07:22:06;20.00;;;3.90;;
22064;SDS011;11197;53.110;8.468;2023-12-20T07:24:32;26.27;;;3.53;;
22064;SDS011;11197;53.110;8.468;2023-12-20T07:27:01;22.52;;;4.18;;
22064;SDS011;11197;53.110;8.468;2023-12-20T07:29:27;16.98;;;3.33;;
22064;SDS011;11197;53.110;8.468;2023-12-20T07:31:53;21.70;;;3.60;;
22064;SDS011;11197;53.110;8.468;2023-12-20T07:34:22;16.25;;;3.45;;
22064;SDS011;11197;53.110;8.468;2023-12-20T07:36:47;21.55;;;3.47;;
22064;SDS011;11197;53.110;8.468;2023-12-20T07:39:13;21.55;;;3.30;;
22064;SDS011;11197;53.110;8.468;2023-12-20T07:41:39;21.52;;;3.78;;
22064;SDS011;11197;53.110;8.468;2023-12-20T07:44:06;19.67;;;3.97;;
22064;SDS011;11197;53.110;8.468;2023-12-20T07:46:32;21.15;;;3.90;;
22064;SDS011;11197;53.110;8.468;2023-12-20T07:48:57;24.48;;;4.15;;
22064;SDS011;11197;53.110;8.468;2023-12-20T07:51:23;20.98;;;3.78;;
22064;SDS011;11197;53.110;8.468;2023-12-20T07:53:49;21.90;;;3.65;;
22064;SDS011;11197;53.110;8.468;2023-12-20T07:56:17;23.10;;;4.00;;
22064;SDS011;11197;53.110;8.468;2023-12-20T07:58:44;18.50;;;3.58;;
22064;SDS011;11197;53.110;8.468;2023-12-20T08:01:10;23.80;;;4.05;;
22064;SDS011;11197;53.110;8.468;2023-12-20T08:03:36;22.80;;;3.60;;
22064;SDS011;11197;53.110;8.468;2023-12-20T08:06:02;23.35;;;3.50;;
22064;SDS011;11197;53.110;8.468;2023-12-20T08:08:28;21.58;;;3.53;;
22064;SDS011;11197;53.110;8.468;2023-12-20T08:10:54;19.88;;;3.38;;
22064;SDS011;11197;53.110;8.468;2023-12-20T08:13:20;23.90;;;3.50;;
22064;SDS011;11197;53.110;8.468;2023-12-20T08:15:50;20.63;;;3.65;;
22064;SDS011;11197;53.110;8.468;2023-12-20T08:18:15;23.05;;;3.30;;
22064;SDS011;11197;53.110;8.468;2023-12-20T08:20:41;23.38;;;3.58;;
22064;SDS011;11197;53.110;8.468;2023-12-20T08:23:06;22.77;;;3.60;;
22064;SDS011;11197;53.110;8.468;2023-12-20T08:25:32;25.40;;;3.65;;
22064;SDS011;11197;53.110;8.468;2023-12-20T08:27:58;21.17;;;3.65;;
22064;SDS011;11197;53.110;8.468;2023-12-20T08:30:23;21.20;;;3.65;;
22064;SDS011;11197;53.110;8.468;2023-12-20T08:32:50;19.23;;;3.90;;
22064;SDS011;11197;53.110;8.468;2023-12-20T08:35:16;21.20;;;3.67;;
22064;SDS011;11197;53.110;8.468;2023-12-20T08:37:43;22.70;;;3.67;;
22064;SDS011;11197;53.110;8.468;2023-12-20T08:40:08;20.38;;;3.85;;
22064;SDS011;11197;53.110;8.468;2023-12-20T08:42:34;18.75;;;3.63;;
22064;SDS011;11197;53.110;8.468;2023-12-20T08:45:00;18.63;;;3.65;;
22064;SDS011;11197;53.110;8.468;2023-12-20T08:47:26;20.42;;;3.35;;
22064;SDS011;11197;53.110;8.468;2023-12-20T08:49:52;18.52;;;3.50;;
22064;SDS011;11197;53.110;8.468;2023-12-20T08:52:24;23.23;;;3.53;;
22064;SDS011;11197;53.110;8.468;2023-12-20T08:54:52;18.30;;;3.20;;
22064;SDS011;11197;53.110;8.468;2023-12-20T08:57:22;22.00;;;3.78;;
22064;SDS011;11197;53.110;8.468;2023-12-20T08:59:49;23.63;;;3.28;;
22064;SDS011;11197;53.110;8.468;2023-12-20T09:02:15;24.13;;;3.80;;
22064;SDS011;11197;53.110;8.468;2023-12-20T09:04:42;24.38;;;3.17;;
22064;SDS011;11197;53.110;8.468;2023-12-20T09:07:26;21.65;;;3.53;;
22064;SDS011;11197;53.110;8.468;2023-12-20T09:09:55;16.30;;;3.28;;
22064;SDS011;11197;53.110;8.468;2023-12-20T09:12:21;20.67;;;3.83;;
22064;SDS011;11197;53.110;8.468;2023-12-20T09:14:47;15.75;;;3.33;;
22064;SDS011;11197;53.110;8.468;2023-12-20T09:17:14;20.90;;;3.60;;
22064;SDS011;11197;53.110;8.468;2023-12-20T09:19:41;23.27;;;3.72;;
22064;SDS011;11197;53.110;8.468;2023-12-20T09:22:09;18.98;;;3.75;;
22064;SDS011;11197;53.110;8.468;2023-12-20T09:24:35;15.40;;;3.60;;
22064;SDS011;11197;53.110;8.468;2023-12-20T09:27:00;20.60;;;3.60;;
22064;SDS011;11197;53.110;8.468;2023-12-20T09:29:26;15.73;;;3.20;;
22064;SDS011;11197;53.110;8.468;2023-12-20T09:31:52;24.52;;;3.40;;
22064;SDS011;11197;53.110;8.468;2023-12-20T09:34:18;20.50;;;3.05;;
22064;SDS011;11197;53.110;8.468;2023-12-20T09:36:43;8.48;;;1.40;;
22064;SDS011;11197;53.110;8.468;2023-12-20T09:39:16;4.32;;;1.02;;
22064;SDS011;11197;53.110;8.468;2023-12-20T09:44:28;6.85;;;0.82;;
22064;SDS011;11197;53.110;8.468;2023-12-20T09:47:01;5.88;;;1.00;;
22064;SDS011;11197;53.110;8.468;2023-12-20T09:49:50;5.50;;;0.90;;
22064;SDS011;11197;53.110;8.468;2023-12-20T09:52:16;4.10;;;0.77;;
22064;SDS011;11197;53.110;8.468;2023-12-20T09:54:43;4.72;;;0.60;;
22064;SDS011;11197;53.110;8.468;2023-12-20T09:57:10;6.10;;;0.70;;
22064;SDS011;11197;53.110;8.468;2023-12-20T09:59:36;3.60;;;0.55;;
22064;SDS011;11197;53.110;8.468;2023-12-20T10:02:02;5.75;;;0.90;;
22064;SDS011;11197;53.110;8.468;2023-12-20T10:04:31;3.40;;;0.60;;
22064;SDS011;11197;53.110;8.468;2023-12-20T10:07:01;5.03;;;0.80;;
22064;SDS011;11197;53.110;8.468;2023-12-20T10:09:29;5.82;;;1.33;;
22064;SDS011;11197;53.110;8.468;2023-12-20T10:11:59;5.15;;;0.75;;
22064;SDS011;11197;53.110;8.468;2023-12-20T10:14:25;3.60;;;0.60;;
22064;SDS011;11197;53.110;8.468;2023-12-20T10:16:51;4.28;;;0.70;;
22064;SDS011;11197;53.110;8.468;2023-12-20T10:19:17;6.40;;;1.20;;
22064;SDS011;11197;53.110;8.468;2023-12-20T10:21:43;4.75;;;0.77;;
22064;SDS011;11197;53.110;8.468;2023-12-20T10:24:09;5.70;;;0.90;;
22064;SDS011;11197;53.110;8.468;2023-12-20T10:26:42;4.28;;;0.90;;
22064;SDS011;11197;53.110;8.468;2023-12-20T10:29:08;6.25;;;1.02;;
22064;SDS011;11197;53.110;8.468;2023-12-20T10:31:35;7.20;;;1.00;;
22064;SDS011;11197;53.110;8.468;2023-12-20T10:34:03;6.40;;;1.10;;
22064;SDS011;11197;53.110;8.468;2023-12-20T10:36:32;5.28;;;1.00;;
22064;SDS011;11197;53.110;8.468;2023-12-20T10:38:58;4.93;;;1.00;;
22064;SDS011;11197;53.110;8.468;2023-12-20T10:41:26;5.75;;;0.98;;
22064;SDS011;11197;53.110;8.468;2023-12-20T10:43:54;4.65;;;0.80;;
22064;SDS011;11197;53.110;8.468;2023-12-20T10:46:28;6.80;;;1.40;;
22064;SDS011;11197;53.110;8.468;2023-12-20T10:48:55;4.20;;;0.70;;
22064;SDS011;11197;53.110;8.468;2023-12-20T10:51:22;5.40;;;0.80;;
22064;SDS011;11197;53.110;8.468;2023-12-20T10:53:49;7.45;;;0.98;;
22064;SDS011;11197;53.110;8.468;2023-12-20T10:56:16;4.85;;;1.20;;
22064;SDS011;11197;53.110;8.468;2023-12-20T10:58:43;7.28;;;1.48;;
22064;SDS011;11197;53.110;8.468;2023-12-20T11:01:10;7.95;;;1.00;;
22064;SDS011;11197;53.110;8.468;2023-12-20T11:03:48;6.28;;;1.13;;
22064;SDS011;11197;53.110;8.468;2023-12-20T11:14:14;9.38;;;1.30;;
22064;SDS011;11197;53.110;8.468;2023-12-20T11:17:06;7.93;;;1.20;;
22064;SDS011;11197;53.110;8.468;2023-12-20T11:19:35;7.28;;;1.13;;
22064;SDS011;11197;53.110;8.468;2023-12-20T11:22:03;8.82;;;1.50;;
22064;SDS011;11197;53.110;8.468;2023-12-20T11:24:30;10.50;;;1.52;;
22064;SDS011;11197;53.110;8.468;2023-12-20T11:26:57;6.30;;;1.10;;
22064;SDS011;11197;53.110;8.468;2023-12-20T11:29:29;11.40;;;1.75;;
22064;SDS011;11197;53.110;8.468;2023-12-20T11:32:33;12.55;;;1.77;;
22064;SDS011;11197;53.110;8.468;2023-12-20T11:34:50;11.10;;;1.90;;
22064;SDS011;11197;53.110;8.468;2023-12-20T11:37:16;9.32;;;1.77;;
22064;SDS011;11197;53.110;8.468;2023-12-20T11:39:45;12.35;;;1.67;;
22064;SDS011;11197;53.110;8.468;2023-12-20T11:42:19;11.40;;;1.30;;
22064;SDS011;11197;53.110;8.468;2023-12-20T11:44:45;8.63;;;1.13;;
22064;SDS011;11197;53.110;8.468;2023-12-20T11:47:12;11.07;;;1.50;;
22064;SDS011;11197;53.110;8.468;2023-12-20T11:49:39;9.18;;;1.70;;
22064;SDS011;11197;53.110;8.468;2023-12-20T11:52:08;12.88;;;1.50;;
22064;SDS011;11197;53.110;8.468;2023-12-20T11:54:34;10.93;;;1.50;;
22064;SDS011;11197;53.110;8.468;2023-12-20T11:57:01;11.80;;;2.00;;
22064;SDS011;11197;53.110;8.468;2023-12-20T11:59:27;11.35;;;1.75;;
22064;SDS011;11197;53.110;8.468;2023-12-20T12:01:52;14.90;;;2.03;;
22064;SDS011;11197;53.110;8.468;2023-12-20T12:04:21;17.38;;;2.05;;
22064;SDS011;11197;53.110;8.468;2023-12-20T12:06:47;10.60;;;1.80;;
22064;SDS011;11197;53.110;8.468;2023-12-20T12:09:12;15.80;;;1.63;;
22064;SDS011;11197;53.110;8.468;2023-12-20T12:11:38;11.95;;;1.60;;
22064;SDS011;11197;53.110;8.468;2023-12-20T12:14:04;15.20;;;1.50;;
22064;SDS011;11197;53.110;8.468;2023-12-20T12:16:29;11.23;;;1.50;;
22064;SDS011;11197;53.110;8.468;2023-12-20T12:18:56;12.50;;;1.65;;
22064;SDS011;11197;53.110;8.468;2023-12-20T12:21:22;12.35;;;1.73;;
22064;SDS011;11197;53.110;8.468;2023-12-20T12:23:48;13.45;;;1.90;;
22064;SDS011;11197;53.110;8.468;2023-12-20T12:26:14;10.40;;;2.15;;
22064;SDS011;11197;53.110;8.468;2023-12-20T12:28:40;11.55;;;2.25;;
22064;SDS011;11197;53.110;8.468;2023-12-20T12:31:06;12.80;;;2.00;;
22064;SDS011;11197;53.110;8.468;2023-12-20T12:33:33;14.40;;;2.45;;
22064;SDS011;11197;53.110;8.468;2023-12-20T12:36:00;16.58;;;2.17;;
22064;SDS011;11197;53.110;8.468;2023-12-20T12:38:26;18.52;;;2.47;;
22064;SDS011;11197;53.110;8.468;2023-12-20T12:40:52;19.35;;;2.28;;
22064;SDS011;11197;53.110;8.468;2023-12-20T12:43:19;15.02;;;2.33;;
22064;SDS011;11197;53.110;8.468;2023-12-20T12:45:47;16.48;;;2.00;;
22064;SDS011;11197;53.110;8.468;2023-12-20T12:48:14;10.32;;;2.10;;
22064;SDS011;11197;53.110;8.468;2023-12-20T12:50:39;15.77;;;2.25;;
22064;SDS011;11197;53.110;8.468;2023-12-20T12:53:05;12.63;;;1.83;;
22064;SDS011;11197;53.110;8.468;2023-12-20T12:55:31;16.30;;;2.30;;
22064;SDS011;11197;53.110;8.468;2023-12-20T12:57:57;18.40;;;2.58;;
22064;SDS011;11197;53.110;8.468;2023-12-20T13:00:22;17.90;;;2.55;;
22064;SDS011;11197;53.110;8.468;2023-12-20T13:02:49;13.52;;;2.22;;
22064;SDS011;11197;53.110;8.468;2023-12-20T13:05:15;12.73;;;2.38;;
22064;SDS011;11197;53.110;8.468;2023-12-20T13:07:40;14.18;;;2.15;;
22064;SDS011;11197;53.110;8.468;2023-12-20T13:10:06;11.18;;;2.70;;
22064;SDS011;11197;53.110;8.468;2023-12-20T13:12:32;15.35;;;2.33;;
22064;SDS011;11197;53.110;8.468;2023-12-20T13:14:57;11.73;;;2.10;;
22064;SDS011;11197;53.110;8.468;2023-12-20T13:17:23;16.63;;;2.35;;
22064;SDS011;11197;53.110;8.468;2023-12-20T13:19:49;12.68;;;1.88;;
22064;SDS011;11197;53.110;8.468;2023-12-20T13:22:15;13.05;;;2.25;;
22064;SDS011;11197;53.110;8.468;2023-12-20T13:24:41;11.70;;;2.13;;
22064;SDS011;11197;53.110;8.468;2023-12-20T13:27:09;18.65;;;2.20;;
22064;SDS011;11197;53.110;8.468;2023-12-20T13:29:35;17.10;;;2.95;;
22064;SDS011;11197;53.110;8.468;2023-12-20T13:32:01;14.82;;;2.25;;
22064;SDS011;11197;53.110;8.468;2023-12-20T13:34:28;13.43;;;2.20;;
22064;SDS011;11197;53.110;8.468;2023-12-20T13:36:54;14.57;;;1.98;;
22064;SDS011;11197;53.110;8.468;2023-12-20T13:39:20;13.65;;;1.88;;
22064;SDS011;11197;53.110;8.468;2023-12-20T13:41:46;12.65;;;2.10;;
22064;SDS011;11197;53.110;8.468;2023-12-20T13:44:12;14.55;;;2.03;;
22064;SDS011;11197;53.110;8.468;2023-12-20T13:46:40;15.18;;;2.42;;
22064;SDS011;11197;53.110;8.468;2023-12-20T13:49:06;10.80;;;1.58;;
22064;SDS011;11197;53.110;8.468;2023-12-20T13:51:32;11.57;;;2.20;;
22064;SDS011;11197;53.110;8.468;2023-12-20T13:53:57;15.23;;;1.90;;
22064;SDS011;11197;53.110;8.468;2023-12-20T13:56:24;17.13;;;2.10;;
22064;SDS011;11197;53.110;8.468;2023-12-20T13:58:50;12.60;;;1.85;;
22064;SDS011;11197;53.110;8.468;2023-12-20T14:01:16;13.05;;;1.88;;
22064;SDS011;11197;53.110;8.468;2023-12-20T14:03:42;16.23;;;2.00;;
22064;SDS011;11197;53.110;8.468;2023-12-20T14:06:08;13.52;;;2.20;;
22064;SDS011;11197;53.110;8.468;2023-12-20T14:08:33;15.38;;;2.15;;
22064;SDS011;11197;53.110;8.468;2023-12-20T14:11:00;12.63;;;1.90;;
22064;SDS011;11197;53.110;8.468;2023-12-20T14:13:26;11.52;;;1.70;;
22064;SDS011;11197;53.110;8.468;2023-12-20T14:15:52;15.73;;;2.05;;
22064;SDS011;11197;53.110;8.468;2023-12-20T14:18:19;12.82;;;1.90;;
22064;SDS011;11197;53.110;8.468;2023-12-20T14:20:47;11.55;;;2.05;;
22064;SDS011;11197;53.110;8.468;2023-12-20T14:23:13;15.73;;;2.10;;
22064;SDS011;11197;53.110;8.468;2023-12-20T14:25:41;14.27;;;1.90;;
22064;SDS011;11197;53.110;8.468;2023-12-20T14:28:07;10.80;;;1.60;;
22064;SDS011;11197;53.110;8.468;2023-12-20T14:30:33;12.20;;;1.70;;
22064;SDS011;11197;53.110;8.468;2023-12-20T14:33:00;12.43;;;1.80;;
22064;SDS011;11197;53.110;8.468;2023-12-20T14:35:25;12.65;;;2.00;;
22064;SDS011;11197;53.110;8.468;2023-12-20T14:37:51;15.20;;;2.45;;
22064;SDS011;11197;53.110;8.468;2023-12-20T14:40:17;14.52;;;2.25;;
22064;SDS011;11197;53.110;8.468;2023-12-20T14:42:43;17.25;;;2.20;;